Lillian, TX (76061)

12:45 PM CST on January 28, 2015 (GMT -0600)
Pleasant Point | Change Station
CLOSE
Current Station
Personal Weather Station
Location: Alvarado, TX
Elevation: 784 ft
Nearby Weather Stations

Elev 784 ft 32.48 °N, 97.20 °W | Updated 3 seconds ago

Clear
Clear
74.3 °F
Feels Like 77 °F
N
9.0
Wind Variable Wind from SSW
Gusts 16.0 mph

Today
High -- | Low -- °F
--% Chance of Precip.
Yesterday
High -- | Low -- °F
Precip. -- in
7:25 AM 5:57 PM
Waxing Gibbous, 67% visible
Pressure 30.10 in
Visibility 20.0 miles
Clouds Clear
Heat Index 77 °F
Dew Point 46 °F
Humidity 37%
Rainfall 0.00 in
Snow Depth Not available.
UV 5 out of 12
Pollen 8.20 out of 12
Air Quality Not available.
Flu Activity Not available.
METAR KFWS 281747Z 19008KT 20SM CLR 24/04 A3010

More Conditions Fewer Conditions

Pressure 30.10 in
Visibility 20.0 miles
Clouds Clear
Heat Index 77 °F
Dew Point 46 °F
Humidity 37%
Rainfall 0.00 in
Snow Depth Not available.
UV 5 out of 12
Pollen 8.20 out of 12
Air Quality Not available.
Flu Activity Not available.
METAR KFWS 281747Z 19008KT 20SM CLR 24/04 A3010

More Conditions Fewer Conditions

10-Day Weather Forecast

Almanac

Astronomy

Jan. 28, 2015 Rise Set
Actual Time
Civil Twilight
Nautical Twilight
Astronomical Twilight
Moon
Length of Visible Light
Length of Day
Tomorrow will be .
, % of the Moon is Illuminated

Today's Extremes

State Highs State Lows

Community

WunderPhotos

Upload Photos

1,791,241 photos uploaded!

WunderBlogs® & News

Nearby

Air Quality

  Air Quality AQ Index Pollutant
Not available.

Snow Depth

Station Depth Elevation

Earthquake Activity

City Distance Mag. Time & Date
Minimum magnitude displayed is 2.5.

Coastal Water Temperatures

Place Temperature

Nearby Weather Stations